createdAt,value
2023-03-12T00:01:50.002Z,6.30
2023-03-12T00:04:20.598Z,5.88
2023-03-12T00:06:51.236Z,5.80
2023-03-12T00:09:21.882Z,6.43
2023-03-12T00:11:53.115Z,6.10
2023-03-12T00:14:25.388Z,6.90
2023-03-12T00:16:56.712Z,6.80
2023-03-12T00:19:27.533Z,6.25
2023-03-12T00:21:58.209Z,5.32
2023-03-12T00:24:28.846Z,6.35
2023-03-12T00:26:59.405Z,6.38
2023-03-12T00:29:31.469Z,6.40
2023-03-12T00:32:01.956Z,6.85
2023-03-12T00:34:32.527Z,7.00
2023-03-12T00:37:03.672Z,6.53
2023-03-12T00:39:35.558Z,7.00
2023-03-12T00:42:06.187Z,6.82
2023-03-12T00:44:38.307Z,5.80
2023-03-12T00:47:09.353Z,6.72
2023-03-12T00:49:40.436Z,5.50
2023-03-12T00:52:11.357Z,5.35
2023-03-12T00:54:42.003Z,5.97
2023-03-12T00:57:12.600Z,5.20
2023-03-12T00:59:47.607Z,5.30
2023-03-12T01:02:18.176Z,5.18
2023-03-12T01:04:48.760Z,5.30
2023-03-12T01:07:19.411Z,5.15
2023-03-12T01:09:50.052Z,5.68
2023-03-12T01:12:20.649Z,5.25
2023-03-12T01:14:52.964Z,5.63
2023-03-12T01:17:23.640Z,5.30
2023-03-12T01:19:54.637Z,6.35
2023-03-12T01:22:25.439Z,5.70
2023-03-12T01:24:55.958Z,5.82
2023-03-12T01:27:26.517Z,6.10
2023-03-12T01:29:59.355Z,5.85
2023-03-12T01:32:29.868Z,5.53
2023-03-12T01:35:03.341Z,5.47
2023-03-12T01:37:35.697Z,5.80
2023-03-12T01:40:07.124Z,5.25
2023-03-12T01:42:37.517Z,5.47
2023-03-12T01:45:25.194Z,5.00
2023-03-12T01:47:55.807Z,4.63
2023-03-12T01:50:26.688Z,4.63
2023-03-12T01:52:59.653Z,4.70
2023-03-12T01:55:30.265Z,4.72
2023-03-12T01:58:03.465Z,5.47
2023-03-12T02:00:35.681Z,5.53
2023-03-12T02:03:10.253Z,5.20
2023-03-12T02:05:49.421Z,6.13
2023-03-12T02:08:21.480Z,5.68
2023-03-12T02:10:52.403Z,6.28
2023-03-12T02:13:23.376Z,5.10
2023-03-12T02:15:55.599Z,5.40
2023-03-12T02:18:26.607Z,5.63
2023-03-12T02:21:06.526Z,5.97
2023-03-12T02:23:42.351Z,5.63
2023-03-12T02:26:15.310Z,7.25
2023-03-12T02:28:47.468Z,6.05
2023-03-12T02:31:21.041Z,6.43
2023-03-12T02:33:52.473Z,5.88
2023-03-12T02:36:23.121Z,11.75
2023-03-12T02:38:54.856Z,17.38
2023-03-12T02:41:31.893Z,17.27
2023-03-12T02:44:06.287Z,9.57
2023-03-12T02:46:39.237Z,7.22
2023-03-12T02:49:10.397Z,5.80
2023-03-12T02:51:41.775Z,7.15
2023-03-12T02:54:14.732Z,6.22
2023-03-12T02:56:48.508Z,6.55
2023-03-12T02:59:22.034Z,6.40
2023-03-12T03:01:57.454Z,6.82
2023-03-12T03:04:30.034Z,5.88
2023-03-12T03:07:02.544Z,6.32
2023-03-12T03:09:36.252Z,6.40
2023-03-12T03:12:10.114Z,6.05
2023-03-12T03:14:44.330Z,5.78
2023-03-12T03:17:16.203Z,6.03
2023-03-12T03:19:48.416Z,5.80
2023-03-12T03:22:20.122Z,5.60
2023-03-12T03:24:51.551Z,6.40
2023-03-12T03:27:28.241Z,5.63
2023-03-12T03:29:59.800Z,5.63
2023-03-12T03:32:31.848Z,5.35
2023-03-12T03:35:03.444Z,4.95
2023-03-12T03:37:35.023Z,5.20
2023-03-12T03:40:13.883Z,5.57
2023-03-12T03:42:47.924Z,4.85
2023-03-12T03:45:21.053Z,5.85
2023-03-12T03:47:53.336Z,5.40
2023-03-12T03:50:25.154Z,5.55
2023-03-12T03:52:56.875Z,5.57
2023-03-12T03:55:28.148Z,5.10
2023-03-12T03:58:01.462Z,6.05
2023-03-12T04:00:33.359Z,5.75
2023-03-12T04:03:05.212Z,5.90
2023-03-12T04:05:37.377Z,5.43
2023-03-12T04:08:08.423Z,6.32
2023-03-12T04:10:40.567Z,6.00
2023-03-12T04:13:12.803Z,6.20
2023-03-12T04:15:50.668Z,5.22
2023-03-12T04:18:21.883Z,5.95
2023-03-12T04:20:58.702Z,5.90
2023-03-12T04:23:29.221Z,6.40
2023-03-12T04:25:59.780Z,6.07
2023-03-12T04:28:32.395Z,6.38
2023-03-12T04:31:22.184Z,6.72
2023-03-12T04:34:16.813Z,6.38
2023-03-12T04:39:23.349Z,6.28
2023-03-12T04:41:55.249Z,5.47
2023-03-12T04:44:29.389Z,5.32
2023-03-12T04:47:01.150Z,6.78
2023-03-12T04:49:32.392Z,5.22
2023-03-12T04:52:05.807Z,6.55
2023-03-12T04:54:38.919Z,6.40
2023-03-12T04:57:10.427Z,6.30
2023-03-12T04:59:43.760Z,5.72
2023-03-12T05:02:15.672Z,5.60
2023-03-12T05:04:47.499Z,6.70
2023-03-12T05:07:19.225Z,5.93
2023-03-12T05:09:51.337Z,5.50
2023-03-12T05:12:22.804Z,6.90
2023-03-12T05:14:56.384Z,6.47
2023-03-12T05:17:27.786Z,6.30
2023-03-12T05:19:59.366Z,6.35
2023-03-12T05:22:30.984Z,6.43
2023-03-12T05:25:02.639Z,6.18
2023-03-12T05:27:34.483Z,6.22
2023-03-12T05:30:10.280Z,6.50
2023-03-12T05:32:42.694Z,4.95
2023-03-12T05:35:15.653Z,5.68
2023-03-12T05:37:47.883Z,5.72
2023-03-12T05:40:19.432Z,5.63
2023-03-12T05:42:50.868Z,5.78
2023-03-12T05:45:24.151Z,5.45
2023-03-12T05:47:58.373Z,6.20
2023-03-12T05:50:30.814Z,6.22
2023-03-12T05:53:02.396Z,7.00
2023-03-12T05:55:39.208Z,6.30
2023-03-12T05:58:12.095Z,7.28
2023-03-12T06:00:45.981Z,7.10
2023-03-12T06:03:17.515Z,7.35
2023-03-12T06:05:49.361Z,13.02
2023-03-12T06:08:20.800Z,11.63
2023-03-12T06:10:59.783Z,19.25
2023-03-12T06:13:32.405Z,7.95
2023-03-12T06:16:11.142Z,6.50
2023-03-12T06:18:42.538Z,6.80
2023-03-12T06:21:18.006Z,6.07
2023-03-12T06:23:49.815Z,6.25
2023-03-12T06:26:23.106Z,7.00
2023-03-12T06:28:57.881Z,7.78
2023-03-12T06:31:31.613Z,8.07
2023-03-12T06:34:03.614Z,9.95
2023-03-12T06:36:35.534Z,8.32
2023-03-12T06:39:10.344Z,9.88
2023-03-12T06:41:42.683Z,9.60
2023-03-12T06:44:14.132Z,8.38
2023-03-12T06:46:47.490Z,8.48
2023-03-12T06:49:19.109Z,18.58
2023-03-12T06:51:51.195Z,15.90
2023-03-12T06:54:22.360Z,10.68
2023-03-12T06:56:54.217Z,16.20
2023-03-12T06:59:26.232Z,11.88
2023-03-12T07:01:58.428Z,11.18
2023-03-12T07:04:28.958Z,9.18
2023-03-12T07:06:59.393Z,8.70
2023-03-12T07:09:30.059Z,10.02
2023-03-12T07:12:00.564Z,9.75
2023-03-12T07:14:31.045Z,10.40
2023-03-12T07:17:03.612Z,10.90
2023-03-12T07:19:34.168Z,10.43
2023-03-12T07:22:04.979Z,9.82
2023-03-12T07:24:36.507Z,8.35
2023-03-12T07:27:07.097Z,7.50
2023-03-12T07:29:37.584Z,8.13
2023-03-12T07:32:09.971Z,7.55
2023-03-12T07:34:40.583Z,8.85
2023-03-12T07:37:11.080Z,8.07
2023-03-12T07:39:41.787Z,9.25
2023-03-12T07:42:13.973Z,9.40
2023-03-12T07:44:44.510Z,8.40
2023-03-12T07:47:23.677Z,11.43
2023-03-12T07:52:25.615Z,9.98
2023-03-12T07:54:57.345Z,10.52
2023-03-12T07:57:27.882Z,11.10
2023-03-12T07:59:58.438Z,8.40
2023-03-12T08:02:31.200Z,8.27
2023-03-12T08:05:01.953Z,9.55
2023-03-12T08:07:44.069Z,8.95
2023-03-12T08:10:20.873Z,9.40
2023-03-12T08:13:05.876Z,9.90
2023-03-12T08:15:36.923Z,9.00
2023-03-12T08:18:14.392Z,8.18
2023-03-12T08:20:45.233Z,8.00
2023-03-12T08:23:17.372Z,9.18
2023-03-12T08:25:49.877Z,9.43
2023-03-12T08:28:22.666Z,11.52
2023-03-12T08:30:55.936Z,10.10
2023-03-12T08:33:31.729Z,10.23
2023-03-12T08:36:03.271Z,11.55
2023-03-12T08:38:35.616Z,11.18
2023-03-12T08:41:07.198Z,9.25
2023-03-12T08:43:41.321Z,9.75
2023-03-12T08:46:12.924Z,8.88
2023-03-12T08:48:47.639Z,10.50
2023-03-12T08:51:19.443Z,9.50
2023-03-12T08:53:51.131Z,9.00
2023-03-12T08:56:22.554Z,9.43
2023-03-12T08:58:54.255Z,10.43
2023-03-12T09:01:25.733Z,9.20
2023-03-12T09:03:58.952Z,9.70
2023-03-12T09:06:30.405Z,10.20
2023-03-12T09:09:10.124Z,10.25
2023-03-12T09:11:42.791Z,11.20
2023-03-12T09:17:06.166Z,10.10
2023-03-12T09:19:39.425Z,9.65
2023-03-12T09:22:11.039Z,9.60
2023-03-12T09:24:42.761Z,9.93
2023-03-12T09:27:14.134Z,9.25
2023-03-12T09:29:58.882Z,8.82
2023-03-12T09:32:31.523Z,8.20
2023-03-12T09:35:07.705Z,9.45
2023-03-12T09:37:41.722Z,8.30
2023-03-12T09:40:27.105Z,8.75
2023-03-12T09:43:01.858Z,8.07
2023-03-12T09:45:36.205Z,13.68
2023-03-12T09:48:09.444Z,10.57
2023-03-12T09:50:44.965Z,9.13
2023-03-12T09:53:25.380Z,7.68
2023-03-12T09:55:59.351Z,8.40
2023-03-12T09:58:33.530Z,7.50
2023-03-12T10:01:16.217Z,9.45
2023-03-12T10:04:21.581Z,8.27
2023-03-12T10:07:00.241Z,7.55
2023-03-12T10:09:49.001Z,8.75
2023-03-12T10:12:30.668Z,8.00
2023-03-12T10:15:20.489Z,8.35
2023-03-12T10:18:04.472Z,8.10
2023-03-12T10:20:56.290Z,8.05
2023-03-12T10:23:41.631Z,7.93
2023-03-12T10:26:18.586Z,8.45
2023-03-12T10:28:54.361Z,8.10
2023-03-12T10:31:30.993Z,8.10
2023-03-12T10:34:03.622Z,7.90
2023-03-12T10:36:41.511Z,14.60
2023-03-12T10:39:19.137Z,9.45
2023-03-12T10:41:54.321Z,11.23
2023-03-12T10:44:27.602Z,10.68
2023-03-12T10:47:11.722Z,9.27
2023-03-12T10:50:16.100Z,14.98
2023-03-12T10:52:48.425Z,10.13
2023-03-12T10:55:28.617Z,9.30
2023-03-12T10:58:00.854Z,9.68
2023-03-12T11:00:33.959Z,9.20
2023-03-12T11:03:06.876Z,8.95
2023-03-12T11:05:40.139Z,9.15
2023-03-12T11:08:24.863Z,8.88
2023-03-12T11:10:59.426Z,9.65
2023-03-12T11:13:34.427Z,9.00
2023-03-12T11:16:06.932Z,8.45
2023-03-12T11:18:39.770Z,9.82
2023-03-12T11:21:20.223Z,9.32
2023-03-12T11:24:09.379Z,9.57
2023-03-12T11:26:53.500Z,10.00
2023-03-12T11:29:32.482Z,9.63
2023-03-12T11:32:09.175Z,10.15
2023-03-12T11:34:43.089Z,9.25
2023-03-12T11:37:22.267Z,10.70
2023-03-12T11:40:17.775Z,8.80
2023-03-12T11:43:42.123Z,9.85
2023-03-12T11:46:32.985Z,9.85
2023-03-12T11:49:19.165Z,10.25
2023-03-12T11:51:57.174Z,9.60
2023-03-12T11:55:14.340Z,9.80
2023-03-12T11:58:09.133Z,9.68
2023-03-12T12:00:48.105Z,10.07
2023-03-12T12:03:41.928Z,10.23
2023-03-12T12:06:19.645Z,9.27
2023-03-12T12:09:17.334Z,10.15
2023-03-12T12:11:59.258Z,9.75
2023-03-12T12:14:48.131Z,10.23
2023-03-12T12:17:31.267Z,10.32
2023-03-12T12:20:19.684Z,10.45
2023-03-12T12:23:02.936Z,12.77
2023-03-12T12:25:49.445Z,12.65
2023-03-12T12:29:07.810Z,13.80
2023-03-12T12:31:47.658Z,11.65
2023-03-12T12:34:51.396Z,11.05
2023-03-12T12:37:47.658Z,11.30
2023-03-12T12:40:24.554Z,10.13
2023-03-12T12:43:04.614Z,10.93
2023-03-12T12:48:13.394Z,10.45
2023-03-12T12:50:45.485Z,10.57
2023-03-12T12:53:24.703Z,11.68
2023-03-12T12:56:09.488Z,11.05
2023-03-12T12:59:07.987Z,11.48
2023-03-12T13:01:40.882Z,10.18
2023-03-12T13:04:18.784Z,10.25
2023-03-12T13:07:02.010Z,9.70
2023-03-12T13:09:41.970Z,9.50
2023-03-12T13:12:24.689Z,9.23
2023-03-12T13:14:58.180Z,11.05
2023-03-12T13:17:32.267Z,10.48
2023-03-12T13:20:21.816Z,9.85
2023-03-12T13:23:05.689Z,8.43
2023-03-12T13:26:07.305Z,9.57
2023-03-12T13:29:11.465Z,8.18
2023-03-12T13:31:45.995Z,10.05
2023-03-12T13:34:49.469Z,9.60
2023-03-12T13:37:59.810Z,10.35
2023-03-12T13:41:01.892Z,10.38
2023-03-12T13:43:55.494Z,10.45
2023-03-12T13:46:40.927Z,9.50
2023-03-12T13:49:20.777Z,8.95
2023-03-12T13:52:03.163Z,9.45
2023-03-12T13:54:42.776Z,9.63
2023-03-12T13:57:33.296Z,9.40
2023-03-12T14:00:07.746Z,9.70
2023-03-12T14:02:47.937Z,9.63
2023-03-12T14:05:21.263Z,10.80
2023-03-12T14:08:06.059Z,10.73
2023-03-12T14:10:54.618Z,10.80
2023-03-12T14:13:41.022Z,10.82
2023-03-12T14:16:23.965Z,10.77
2023-03-12T14:18:56.382Z,11.05
2023-03-12T14:21:30.811Z,11.02
2023-03-12T14:24:06.168Z,11.98
2023-03-12T14:26:40.018Z,12.65
2023-03-12T14:29:22.621Z,12.68
2023-03-12T14:31:55.551Z,13.70
2023-03-12T14:34:29.496Z,14.20
2023-03-12T14:37:06.959Z,13.70
2023-03-12T14:39:44.989Z,13.13
2023-03-12T14:42:27.177Z,13.93
2023-03-12T14:45:02.964Z,12.30
2023-03-12T14:47:42.507Z,14.73
2023-03-12T14:50:21.860Z,15.70
2023-03-12T14:52:53.391Z,15.77
2023-03-12T14:55:27.230Z,14.88
2023-03-12T14:58:20.061Z,15.90
2023-03-12T15:01:01.842Z,16.58
2023-03-12T15:03:34.902Z,16.35
2023-03-12T15:06:06.470Z,15.98
2023-03-12T15:08:42.935Z,17.65
2023-03-12T15:11:14.937Z,16.67
2023-03-12T15:13:46.414Z,16.90
2023-03-12T15:16:20.443Z,16.85
2023-03-12T15:18:52.549Z,17.83
2023-03-12T15:21:25.253Z,17.88
2023-03-12T15:23:56.958Z,19.70
2023-03-12T15:26:34.309Z,20.02
2023-03-12T15:29:07.433Z,18.17
2023-03-12T15:31:49.043Z,16.52
2023-03-12T15:34:33.375Z,15.10
2023-03-12T15:37:06.797Z,15.23
2023-03-12T15:39:40.928Z,16.17
2023-03-12T15:42:18.731Z,15.13
2023-03-12T15:44:52.343Z,16.05
2023-03-12T15:47:27.462Z,16.33
2023-03-12T15:50:01.143Z,14.80
2023-03-12T15:52:35.256Z,15.30
2023-03-12T15:55:22.830Z,15.50
2023-03-12T15:57:58.402Z,15.73
2023-03-12T16:00:31.973Z,16.30
2023-03-12T16:03:07.290Z,15.13
2023-03-12T16:05:40.822Z,13.82
2023-03-12T16:08:19.751Z,15.80
2023-03-12T16:10:52.136Z,16.58
2023-03-12T16:13:27.668Z,28.15
2023-03-12T16:15:59.307Z,23.60
2023-03-12T16:18:32.539Z,33.97
2023-03-12T16:21:04.106Z,28.67
2023-03-12T16:23:35.788Z,31.60
2023-03-12T16:26:08.702Z,25.52
2023-03-12T16:28:40.524Z,28.73
2023-03-12T16:31:16.321Z,18.30
2023-03-12T16:33:49.697Z,16.60
2023-03-12T16:36:22.216Z,15.73
2023-03-12T16:38:53.776Z,15.18
2023-03-12T16:41:25.241Z,16.50
2023-03-12T16:43:56.877Z,15.50
2023-03-12T16:46:34.840Z,14.90
2023-03-12T16:49:08.182Z,16.08
2023-03-12T16:51:40.412Z,15.25
2023-03-12T16:54:12.375Z,14.65
2023-03-12T16:56:47.375Z,15.13
2023-03-12T16:59:26.317Z,14.73
2023-03-12T17:02:00.690Z,15.45
2023-03-12T17:04:33.951Z,15.77
2023-03-12T17:07:14.018Z,15.43
2023-03-12T17:12:28.362Z,19.30
2023-03-12T17:15:01.510Z,14.93
2023-03-12T17:17:33.062Z,15.23
2023-03-12T17:20:09.306Z,15.10
2023-03-12T17:22:41.143Z,13.85
2023-03-12T17:26:28.498Z,13.25
2023-03-12T17:29:00.382Z,12.75
2023-03-12T17:31:35.056Z,12.23
2023-03-12T17:42:41.392Z,12.80
2023-03-12T17:46:17.588Z,12.27
2023-03-12T17:48:50.803Z,12.27
2023-03-12T17:49:50.340Z,13.65
2023-03-12T17:51:22.882Z,13.00
2023-03-12T17:53:54.383Z,14.15
2023-03-12T17:56:25.804Z,13.30
2023-03-12T17:58:58.189Z,14.15
2023-03-12T18:01:29.590Z,12.98
2023-03-12T18:04:02.650Z,14.70
2023-03-12T18:06:34.505Z,14.48
2023-03-12T18:09:06.007Z,14.90
2023-03-12T18:11:37.615Z,13.95
2023-03-12T18:14:20.859Z,13.55
2023-03-12T18:16:52.449Z,11.93
2023-03-12T18:19:25.623Z,12.25
2023-03-12T18:21:57.258Z,12.60
2023-03-12T18:24:28.681Z,13.23
2023-03-12T18:27:00.496Z,12.43
2023-03-12T18:29:32.159Z,11.45
2023-03-12T18:32:03.666Z,11.70
2023-03-12T18:34:36.897Z,12.05
2023-03-12T18:37:08.326Z,12.25
2023-03-12T18:39:39.779Z,12.57
2023-03-12T18:42:11.309Z,11.70
2023-03-12T18:44:42.839Z,12.60
2023-03-12T18:47:14.267Z,11.90
2023-03-12T18:49:47.541Z,11.68
2023-03-12T18:52:19.064Z,12.25
2023-03-12T18:54:53.364Z,12.00
2023-03-12T18:57:24.843Z,11.93
2023-03-12T18:59:56.938Z,13.27
2023-03-12T19:02:28.470Z,11.25
2023-03-12T19:05:04.824Z,10.27
2023-03-12T19:07:39.095Z,11.23
2023-03-12T19:10:12.032Z,11.32
2023-03-12T19:12:52.795Z,11.95
2023-03-12T19:15:26.435Z,11.43
2023-03-12T19:17:57.099Z,11.55
2023-03-12T19:20:32.121Z,12.00
2023-03-12T19:23:02.740Z,11.38
2023-03-12T19:25:33.715Z,12.60
2023-03-12T19:28:05.333Z,12.13
2023-03-12T19:30:38.884Z,13.25
2023-03-12T19:33:09.725Z,13.40
2023-03-12T19:35:44.025Z,13.77
2023-03-12T19:38:14.610Z,14.50
2023-03-12T19:40:54.247Z,13.50
2023-03-12T19:43:26.411Z,13.05
2023-03-12T19:46:00.001Z,11.98
2023-03-12T19:48:33.038Z,12.65
2023-03-12T19:51:14.229Z,12.73
2023-03-12T19:53:49.771Z,12.60
2023-03-12T19:56:21.989Z,11.82
2023-03-12T19:58:59.851Z,12.45
2023-03-12T20:01:30.258Z,12.05
2023-03-12T20:04:00.833Z,12.73
2023-03-12T20:06:32.934Z,13.38
2023-03-12T20:09:03.530Z,13.95
2023-03-12T20:11:34.429Z,13.95
2023-03-12T20:14:05.003Z,13.98
2023-03-12T20:16:35.526Z,12.30
2023-03-12T20:19:06.201Z,12.65
2023-03-12T20:21:38.312Z,13.00
2023-03-12T20:24:09.102Z,11.20
2023-03-12T20:26:40.527Z,10.27
2023-03-12T20:29:11.041Z,10.98
2023-03-12T20:31:41.502Z,9.07
2023-03-12T20:34:12.030Z,10.68
2023-03-12T20:36:44.308Z,9.10
2023-03-12T20:39:15.112Z,8.95
2023-03-12T20:41:45.657Z,9.38
2023-03-12T20:44:16.188Z,9.90
2023-03-12T20:46:46.750Z,9.68
2023-03-12T20:49:17.883Z,9.15
2023-03-12T20:51:50.142Z,7.60
2023-03-12T20:54:20.733Z,7.45
2023-03-12T20:56:51.440Z,7.90
2023-03-12T20:59:22.207Z,7.57
2023-03-12T21:01:52.831Z,6.85
2023-03-12T21:04:23.576Z,7.00
2023-03-12T21:06:56.822Z,6.55
2023-03-12T21:09:27.477Z,6.88
2023-03-12T21:11:58.044Z,6.90
2023-03-12T21:14:28.794Z,7.57
2023-03-12T21:16:59.708Z,6.70
2023-03-12T21:19:32.560Z,7.95
2023-03-12T21:22:04.831Z,7.20
2023-03-12T21:24:40.265Z,5.95
2023-03-12T21:27:12.798Z,6.25
2023-03-12T21:29:43.509Z,6.57
2023-03-12T21:32:14.183Z,6.80
2023-03-12T21:34:44.735Z,6.93
2023-03-12T21:37:17.133Z,6.00
2023-03-12T21:39:47.839Z,6.85
2023-03-12T21:42:18.424Z,5.60
2023-03-12T21:44:51.840Z,5.18
2023-03-12T21:47:22.477Z,5.68
2023-03-12T21:49:53.323Z,5.65
2023-03-12T21:52:25.700Z,4.30
2023-03-12T21:54:56.416Z,4.93
2023-03-12T21:57:27.085Z,5.20
2023-03-12T21:59:57.726Z,4.80
2023-03-12T22:02:30.375Z,5.45
2023-03-12T22:05:02.928Z,5.30
2023-03-12T22:07:35.283Z,5.32
2023-03-12T22:10:06.588Z,4.90
2023-03-12T22:12:37.346Z,5.15
2023-03-12T22:15:09.244Z,4.97
2023-03-12T22:17:39.963Z,4.93
2023-03-12T22:20:12.133Z,4.45
2023-03-12T22:22:44.440Z,4.47
2023-03-12T22:25:15.065Z,4.57
2023-03-12T22:27:45.698Z,4.85
2023-03-12T22:30:16.982Z,4.35
2023-03-12T22:32:47.690Z,4.65
2023-03-12T22:35:18.519Z,4.35
2023-03-12T22:37:50.738Z,3.58
2023-03-12T22:40:21.557Z,2.88
2023-03-12T22:42:57.071Z,2.95
2023-03-12T22:45:27.716Z,3.30
2023-03-12T22:47:58.372Z,2.20
2023-03-12T22:50:29.113Z,2.35
2023-03-12T22:53:02.188Z,2.17
2023-03-12T22:55:32.813Z,2.42
2023-03-12T22:58:03.415Z,2.35
2023-03-12T23:00:34.036Z,2.05
2023-03-12T23:03:04.687Z,2.03
2023-03-12T23:05:35.415Z,1.90
2023-03-12T23:08:08.347Z,2.15
2023-03-12T23:10:38.995Z,2.10
2023-03-12T23:13:10.290Z,2.13
2023-03-12T23:15:41.938Z,2.17
2023-03-12T23:18:12.728Z,1.98
2023-03-12T23:20:43.700Z,1.63
2023-03-12T23:23:18.108Z,2.08
2023-03-12T23:25:56.169Z,1.75
2023-03-12T23:28:27.170Z,1.85
2023-03-12T23:30:59.279Z,2.00
2023-03-12T23:33:31.551Z,1.70
2023-03-12T23:36:04.507Z,1.65
2023-03-12T23:38:37.651Z,1.67
2023-03-12T23:41:10.167Z,1.40
2023-03-12T23:43:40.949Z,1.90
2023-03-12T23:46:13.173Z,1.63
2023-03-12T23:48:44.294Z,1.35
2023-03-12T23:51:16.035Z,1.58
2023-03-12T23:53:50.762Z,1.55
2023-03-12T23:56:23.894Z,1.50
2023-03-12T23:58:54.963Z,1.52
